sensor_id;sensor_type;location;lat;lon;timestamp;P1;durP1;ratioP1;P2;durP2;ratioP2
35326;SDS011;21436;52.348;20.928;2023-07-09T00:01:51;10.00;;;7.32;;
35326;SDS011;21436;52.348;20.928;2023-07-09T00:04:19;12.18;;;6.82;;
35326;SDS011;21436;52.348;20.928;2023-07-09T00:06:47;8.65;;;6.30;;
35326;SDS011;21436;52.348;20.928;2023-07-09T00:09:15;7.32;;;6.30;;
35326;SDS011;21436;52.348;20.928;2023-07-09T00:11:45;9.40;;;6.63;;
35326;SDS011;21436;52.348;20.928;2023-07-09T00:14:14;9.55;;;6.53;;
35326;SDS011;21436;52.348;20.928;2023-07-09T00:16:43;10.45;;;7.03;;
35326;SDS011;21436;52.348;20.928;2023-07-09T00:19:15;10.50;;;6.80;;
35326;SDS011;21436;52.348;20.928;2023-07-09T00:21:47;8.68;;;6.00;;
35326;SDS011;21436;52.348;20.928;2023-07-09T00:24:16;9.65;;;6.82;;
35326;SDS011;21436;52.348;20.928;2023-07-09T00:26:44;10.43;;;7.60;;
35326;SDS011;21436;52.348;20.928;2023-07-09T00:29:13;9.05;;;6.75;;
35326;SDS011;21436;52.348;20.928;2023-07-09T00:31:42;9.52;;;6.80;;
35326;SDS011;21436;52.348;20.928;2023-07-09T00:34:14;9.55;;;6.90;;
35326;SDS011;21436;52.348;20.928;2023-07-09T00:36:45;8.82;;;6.53;;
35326;SDS011;21436;52.348;20.928;2023-07-09T00:39:16;11.15;;;6.78;;
35326;SDS011;21436;52.348;20.928;2023-07-09T00:41:46;9.20;;;6.93;;
35326;SDS011;21436;52.348;20.928;2023-07-09T00:49:36;11.45;;;7.30;;
35326;SDS011;21436;52.348;20.928;2023-07-09T00:52:18;9.55;;;7.30;;
35326;SDS011;21436;52.348;20.928;2023-07-09T00:54:50;9.02;;;6.93;;
35326;SDS011;21436;52.348;20.928;2023-07-09T00:57:20;9.32;;;7.00;;
35326;SDS011;21436;52.348;20.928;2023-07-09T00:59:51;69.07;;;10.93;;
35326;SDS011;21436;52.348;20.928;2023-07-09T01:02:39;25.92;;;8.60;;
35326;SDS011;21436;52.348;20.928;2023-07-09T01:05:12;24.63;;;8.38;;
35326;SDS011;21436;52.348;20.928;2023-07-09T01:07:40;22.27;;;8.55;;
35326;SDS011;21436;52.348;20.928;2023-07-09T01:10:08;31.15;;;8.38;;
35326;SDS011;21436;52.348;20.928;2023-07-09T01:12:37;21.05;;;7.85;;
35326;SDS011;21436;52.348;20.928;2023-07-09T01:15:04;11.52;;;7.35;;
35326;SDS011;21436;52.348;20.928;2023-07-09T01:17:35;19.83;;;8.27;;
35326;SDS011;21436;52.348;20.928;2023-07-09T01:20:06;9.63;;;7.55;;
35326;SDS011;21436;52.348;20.928;2023-07-09T01:22:36;8.68;;;7.40;;
35326;SDS011;21436;52.348;20.928;2023-07-09T01:25:05;11.43;;;7.40;;
35326;SDS011;21436;52.348;20.928;2023-07-09T01:27:35;10.45;;;7.55;;
35326;SDS011;21436;52.348;20.928;2023-07-09T01:30:12;13.13;;;8.65;;
35326;SDS011;21436;52.348;20.928;2023-07-09T01:32:42;12.52;;;8.07;;
35326;SDS011;21436;52.348;20.928;2023-07-09T01:35:14;12.60;;;8.00;;
35326;SDS011;21436;52.348;20.928;2023-07-09T01:37:44;11.15;;;7.75;;
35326;SDS011;21436;52.348;20.928;2023-07-09T01:40:15;9.68;;;7.40;;
35326;SDS011;21436;52.348;20.928;2023-07-09T01:42:58;12.63;;;8.35;;
35326;SDS011;21436;52.348;20.928;2023-07-09T01:45:27;9.45;;;7.55;;
35326;SDS011;21436;52.348;20.928;2023-07-09T01:47:56;8.93;;;7.60;;
35326;SDS011;21436;52.348;20.928;2023-07-09T01:50:24;9.80;;;7.57;;
35326;SDS011;21436;52.348;20.928;2023-07-09T01:52:52;10.60;;;7.38;;
35326;SDS011;21436;52.348;20.928;2023-07-09T01:55:20;11.43;;;8.20;;
35326;SDS011;21436;52.348;20.928;2023-07-09T01:57:48;10.02;;;7.72;;
35326;SDS011;21436;52.348;20.928;2023-07-09T02:00:18;12.93;;;8.95;;
35326;SDS011;21436;52.348;20.928;2023-07-09T02:02:47;10.65;;;7.95;;
35326;SDS011;21436;52.348;20.928;2023-07-09T02:05:19;14.90;;;8.38;;
35326;SDS011;21436;52.348;20.928;2023-07-09T02:07:47;10.18;;;8.00;;
35326;SDS011;21436;52.348;20.928;2023-07-09T02:10:16;10.65;;;7.47;;
35326;SDS011;21436;52.348;20.928;2023-07-09T02:12:44;11.15;;;8.27;;
35326;SDS011;21436;52.348;20.928;2023-07-09T02:15:13;14.00;;;8.65;;
35326;SDS011;21436;52.348;20.928;2023-07-09T02:17:41;13.13;;;8.32;;
35326;SDS011;21436;52.348;20.928;2023-07-09T02:20:09;12.25;;;9.00;;
35326;SDS011;21436;52.348;20.928;2023-07-09T02:22:38;13.13;;;8.32;;
35326;SDS011;21436;52.348;20.928;2023-07-09T02:25:06;9.45;;;8.25;;
35326;SDS011;21436;52.348;20.928;2023-07-09T02:27:35;12.30;;;8.77;;
35326;SDS011;21436;52.348;20.928;2023-07-09T02:30:04;11.57;;;8.75;;
35326;SDS011;21436;52.348;20.928;2023-07-09T02:32:33;10.13;;;8.10;;
35326;SDS011;21436;52.348;20.928;2023-07-09T02:35:01;9.65;;;8.18;;
35326;SDS011;21436;52.348;20.928;2023-07-09T02:37:28;11.20;;;8.27;;
35326;SDS011;21436;52.348;20.928;2023-07-09T02:39:56;11.32;;;8.48;;
35326;SDS011;21436;52.348;20.928;2023-07-09T02:42:24;12.68;;;8.73;;
35326;SDS011;21436;52.348;20.928;2023-07-09T02:44:51;12.52;;;9.55;;
35326;SDS011;21436;52.348;20.928;2023-07-09T02:47:20;12.20;;;8.68;;
35326;SDS011;21436;52.348;20.928;2023-07-09T02:49:48;14.57;;;9.13;;
35326;SDS011;21436;52.348;20.928;2023-07-09T02:52:16;12.43;;;8.85;;
35326;SDS011;21436;52.348;20.928;2023-07-09T02:54:44;10.13;;;8.30;;
35326;SDS011;21436;52.348;20.928;2023-07-09T02:57:11;13.90;;;8.23;;
35326;SDS011;21436;52.348;20.928;2023-07-09T02:59:39;18.55;;;9.85;;
35326;SDS011;21436;52.348;20.928;2023-07-09T03:02:07;14.38;;;8.85;;
35326;SDS011;21436;52.348;20.928;2023-07-09T03:04:35;12.48;;;8.07;;
35326;SDS011;21436;52.348;20.928;2023-07-09T03:07:02;11.57;;;7.95;;
35326;SDS011;21436;52.348;20.928;2023-07-09T03:09:30;10.48;;;8.25;;
35326;SDS011;21436;52.348;20.928;2023-07-09T03:11:58;10.13;;;7.68;;
35326;SDS011;21436;52.348;20.928;2023-07-09T03:14:25;11.70;;;8.15;;
35326;SDS011;21436;52.348;20.928;2023-07-09T03:16:53;12.07;;;8.13;;
35326;SDS011;21436;52.348;20.928;2023-07-09T03:19:22;9.48;;;8.10;;
35326;SDS011;21436;52.348;20.928;2023-07-09T03:21:51;10.32;;;7.50;;
35326;SDS011;21436;52.348;20.928;2023-07-09T03:24:18;10.80;;;7.57;;
35326;SDS011;21436;52.348;20.928;2023-07-09T03:26:47;8.68;;;7.38;;
35326;SDS011;21436;52.348;20.928;2023-07-09T03:29:15;11.35;;;8.07;;
35326;SDS011;21436;52.348;20.928;2023-07-09T03:31:43;11.05;;;7.22;;
35326;SDS011;21436;52.348;20.928;2023-07-09T03:34:11;8.18;;;7.32;;
35326;SDS011;21436;52.348;20.928;2023-07-09T03:36:38;9.73;;;7.22;;
35326;SDS011;21436;52.348;20.928;2023-07-09T03:39:06;7.28;;;6.18;;
35326;SDS011;21436;52.348;20.928;2023-07-09T03:41:34;8.60;;;6.18;;
35326;SDS011;21436;52.348;20.928;2023-07-09T03:44:02;9.10;;;6.00;;
35326;SDS011;21436;52.348;20.928;2023-07-09T03:46:30;9.45;;;6.20;;
35326;SDS011;21436;52.348;20.928;2023-07-09T03:48:58;8.88;;;5.88;;
35326;SDS011;21436;52.348;20.928;2023-07-09T03:51:26;7.80;;;5.82;;
35326;SDS011;21436;52.348;20.928;2023-07-09T03:53:53;8.18;;;5.80;;
35326;SDS011;21436;52.348;20.928;2023-07-09T03:56:21;7.40;;;5.47;;
35326;SDS011;21436;52.348;20.928;2023-07-09T03:58:49;9.93;;;5.28;;
35326;SDS011;21436;52.348;20.928;2023-07-09T04:01:16;8.60;;;5.15;;
35326;SDS011;21436;52.348;20.928;2023-07-09T04:03:44;9.05;;;4.82;;
35326;SDS011;21436;52.348;20.928;2023-07-09T04:06:12;6.95;;;5.05;;
35326;SDS011;21436;52.348;20.928;2023-07-09T04:08:39;7.55;;;5.18;;
35326;SDS011;21436;52.348;20.928;2023-07-09T04:11:07;8.32;;;5.13;;
35326;SDS011;21436;52.348;20.928;2023-07-09T04:13:34;7.88;;;4.53;;
35326;SDS011;21436;52.348;20.928;2023-07-09T04:16:02;5.80;;;4.38;;
35326;SDS011;21436;52.348;20.928;2023-07-09T04:18:30;6.68;;;4.63;;
35326;SDS011;21436;52.348;20.928;2023-07-09T04:20:58;6.15;;;4.60;;
35326;SDS011;21436;52.348;20.928;2023-07-09T04:23:25;6.00;;;4.32;;
35326;SDS011;21436;52.348;20.928;2023-07-09T04:25:53;7.00;;;4.03;;
35326;SDS011;21436;52.348;20.928;2023-07-09T04:28:20;7.35;;;3.88;;
35326;SDS011;21436;52.348;20.928;2023-07-09T04:30:49;4.68;;;4.10;;
35326;SDS011;21436;52.348;20.928;2023-07-09T04:33:18;8.02;;;3.78;;
35326;SDS011;21436;52.348;20.928;2023-07-09T04:35:47;4.75;;;4.00;;
35326;SDS011;21436;52.348;20.928;2023-07-09T04:38:15;7.82;;;3.45;;
35326;SDS011;21436;52.348;20.928;2023-07-09T04:40:43;8.48;;;3.83;;
35326;SDS011;21436;52.348;20.928;2023-07-09T04:43:11;7.22;;;3.92;;
35326;SDS011;21436;52.348;20.928;2023-07-09T04:45:38;4.15;;;3.47;;
35326;SDS011;21436;52.348;20.928;2023-07-09T04:48:06;4.55;;;3.15;;
35326;SDS011;21436;52.348;20.928;2023-07-09T04:50:34;5.63;;;3.33;;
35326;SDS011;21436;52.348;20.928;2023-07-09T04:53:01;4.18;;;3.60;;
35326;SDS011;21436;52.348;20.928;2023-07-09T04:55:31;5.32;;;3.25;;
35326;SDS011;21436;52.348;20.928;2023-07-09T04:57:58;5.38;;;2.85;;
35326;SDS011;21436;52.348;20.928;2023-07-09T05:00:26;5.18;;;3.08;;
35326;SDS011;21436;52.348;20.928;2023-07-09T05:02:53;4.03;;;2.92;;
35326;SDS011;21436;52.348;20.928;2023-07-09T05:05:21;3.58;;;2.70;;
35326;SDS011;21436;52.348;20.928;2023-07-09T05:07:50;4.47;;;3.00;;
35326;SDS011;21436;52.348;20.928;2023-07-09T05:10:18;3.50;;;3.03;;
35326;SDS011;21436;52.348;20.928;2023-07-09T05:12:52;10.38;;;3.08;;
35326;SDS011;21436;52.348;20.928;2023-07-09T05:15:21;5.80;;;2.90;;
35326;SDS011;21436;52.348;20.928;2023-07-09T05:17:49;4.88;;;2.95;;
35326;SDS011;21436;52.348;20.928;2023-07-09T05:20:16;3.45;;;2.65;;
35326;SDS011;21436;52.348;20.928;2023-07-09T05:22:44;5.72;;;2.97;;
35326;SDS011;21436;52.348;20.928;2023-07-09T05:25:11;4.50;;;2.58;;
35326;SDS011;21436;52.348;20.928;2023-07-09T05:27:39;5.00;;;2.50;;
35326;SDS011;21436;52.348;20.928;2023-07-09T05:30:06;4.38;;;2.85;;
35326;SDS011;21436;52.348;20.928;2023-07-09T05:32:35;5.63;;;2.63;;
35326;SDS011;21436;52.348;20.928;2023-07-09T05:35:04;5.35;;;3.00;;
35326;SDS011;21436;52.348;20.928;2023-07-09T05:37:32;6.22;;;2.45;;
35326;SDS011;21436;52.348;20.928;2023-07-09T05:39:59;2.92;;;2.53;;
35326;SDS011;21436;52.348;20.928;2023-07-09T05:42:27;5.88;;;2.55;;
35326;SDS011;21436;52.348;20.928;2023-07-09T05:44:55;3.08;;;2.42;;
35326;SDS011;21436;52.348;20.928;2023-07-09T05:47:22;6.15;;;2.80;;
35326;SDS011;21436;52.348;20.928;2023-07-09T05:49:50;3.03;;;2.65;;
35326;SDS011;21436;52.348;20.928;2023-07-09T05:52:18;3.50;;;2.67;;
35326;SDS011;21436;52.348;20.928;2023-07-09T05:54:51;3.55;;;2.63;;
35326;SDS011;21436;52.348;20.928;2023-07-09T05:57:19;4.00;;;2.40;;
35326;SDS011;21436;52.348;20.928;2023-07-09T05:59:47;3.72;;;2.53;;
35326;SDS011;21436;52.348;20.928;2023-07-09T06:02:15;4.90;;;2.55;;
35326;SDS011;21436;52.348;20.928;2023-07-09T06:04:44;4.25;;;2.40;;
35326;SDS011;21436;52.348;20.928;2023-07-09T06:07:13;6.20;;;2.30;;
35326;SDS011;21436;52.348;20.928;2023-07-09T06:09:41;3.53;;;2.20;;
35326;SDS011;21436;52.348;20.928;2023-07-09T06:12:09;4.60;;;2.22;;
35326;SDS011;21436;52.348;20.928;2023-07-09T06:14:37;5.30;;;2.40;;
35326;SDS011;21436;52.348;20.928;2023-07-09T06:17:04;3.78;;;2.38;;
35326;SDS011;21436;52.348;20.928;2023-07-09T06:19:32;1.92;;;1.73;;
35326;SDS011;21436;52.348;20.928;2023-07-09T06:21:59;4.78;;;2.50;;
35326;SDS011;21436;52.348;20.928;2023-07-09T06:24:28;4.20;;;1.92;;
35326;SDS011;21436;52.348;20.928;2023-07-09T06:26:56;2.83;;;1.80;;
35326;SDS011;21436;52.348;20.928;2023-07-09T06:29:23;2.65;;;1.80;;
35326;SDS011;21436;52.348;20.928;2023-07-09T06:31:51;3.83;;;2.05;;
35326;SDS011;21436;52.348;20.928;2023-07-09T06:34:18;3.30;;;1.77;;
35326;SDS011;21436;52.348;20.928;2023-07-09T06:36:46;6.18;;;1.90;;
35326;SDS011;21436;52.348;20.928;2023-07-09T06:39:14;3.53;;;2.08;;
35326;SDS011;21436;52.348;20.928;2023-07-09T06:41:41;5.45;;;2.08;;
35326;SDS011;21436;52.348;20.928;2023-07-09T06:44:27;2.92;;;2.40;;
35326;SDS011;21436;52.348;20.928;2023-07-09T06:46:55;2.92;;;2.20;;
35326;SDS011;21436;52.348;20.928;2023-07-09T06:49:22;4.22;;;1.80;;
35326;SDS011;21436;52.348;20.928;2023-07-09T06:51:49;3.45;;;2.20;;
35326;SDS011;21436;52.348;20.928;2023-07-09T06:54:17;2.72;;;2.20;;
35326;SDS011;21436;52.348;20.928;2023-07-09T06:56:45;3.33;;;2.33;;
35326;SDS011;21436;52.348;20.928;2023-07-09T06:59:13;3.42;;;2.00;;
35326;SDS011;21436;52.348;20.928;2023-07-09T07:01:40;3.35;;;2.17;;
35326;SDS011;21436;52.348;20.928;2023-07-09T07:04:08;4.32;;;1.90;;
35326;SDS011;21436;52.348;20.928;2023-07-09T07:06:35;2.20;;;2.00;;
35326;SDS011;21436;52.348;20.928;2023-07-09T07:09:04;6.00;;;1.90;;
35326;SDS011;21436;52.348;20.928;2023-07-09T07:11:31;4.20;;;1.85;;
35326;SDS011;21436;52.348;20.928;2023-07-09T07:13:59;2.42;;;1.88;;
35326;SDS011;21436;52.348;20.928;2023-07-09T07:16:26;2.58;;;1.92;;
35326;SDS011;21436;52.348;20.928;2023-07-09T07:18:54;6.85;;;2.30;;
35326;SDS011;21436;52.348;20.928;2023-07-09T07:21:22;3.55;;;1.83;;
35326;SDS011;21436;52.348;20.928;2023-07-09T07:23:49;2.47;;;2.17;;
35326;SDS011;21436;52.348;20.928;2023-07-09T07:26:19;5.32;;;2.38;;
35326;SDS011;21436;52.348;20.928;2023-07-09T07:28:47;2.90;;;1.85;;
35326;SDS011;21436;52.348;20.928;2023-07-09T07:31:15;3.25;;;1.70;;
35326;SDS011;21436;52.348;20.928;2023-07-09T07:33:42;2.63;;;1.83;;
35326;SDS011;21436;52.348;20.928;2023-07-09T07:36:10;5.65;;;1.90;;
35326;SDS011;21436;52.348;20.928;2023-07-09T07:38:40;3.22;;;2.05;;
35326;SDS011;21436;52.348;20.928;2023-07-09T07:41:08;6.22;;;2.20;;
35326;SDS011;21436;52.348;20.928;2023-07-09T07:43:36;2.65;;;1.80;;
35326;SDS011;21436;52.348;20.928;2023-07-09T07:46:03;3.83;;;2.00;;
35326;SDS011;21436;52.348;20.928;2023-07-09T07:48:31;5.88;;;1.90;;
35326;SDS011;21436;52.348;20.928;2023-07-09T07:50:59;1.95;;;1.75;;
35326;SDS011;21436;52.348;20.928;2023-07-09T07:53:29;2.58;;;1.75;;
35326;SDS011;21436;52.348;20.928;2023-07-09T07:55:57;2.90;;;1.83;;
35326;SDS011;21436;52.348;20.928;2023-07-09T07:58:25;3.63;;;1.75;;
35326;SDS011;21436;52.348;20.928;2023-07-09T08:00:56;8.00;;;1.80;;
35326;SDS011;21436;52.348;20.928;2023-07-09T08:03:24;5.85;;;1.60;;
35326;SDS011;21436;52.348;20.928;2023-07-09T08:05:52;4.80;;;1.75;;
35326;SDS011;21436;52.348;20.928;2023-07-09T08:08:20;1.50;;;1.30;;
35326;SDS011;21436;52.348;20.928;2023-07-09T08:10:51;5.00;;;1.90;;
35326;SDS011;21436;52.348;20.928;2023-07-09T08:13:18;5.40;;;1.60;;
35326;SDS011;21436;52.348;20.928;2023-07-09T08:15:46;2.55;;;1.52;;
35326;SDS011;21436;52.348;20.928;2023-07-09T08:18:14;2.70;;;2.03;;
35326;SDS011;21436;52.348;20.928;2023-07-09T08:20:45;4.00;;;1.95;;
35326;SDS011;21436;52.348;20.928;2023-07-09T08:23:13;2.92;;;1.48;;
35326;SDS011;21436;52.348;20.928;2023-07-09T08:25:40;1.85;;;1.60;;
35326;SDS011;21436;52.348;20.928;2023-07-09T08:28:08;2.25;;;1.63;;
35326;SDS011;21436;52.348;20.928;2023-07-09T08:30:35;3.22;;;1.52;;
35326;SDS011;21436;52.348;20.928;2023-07-09T08:33:03;2.47;;;1.63;;
35326;SDS011;21436;52.348;20.928;2023-07-09T08:35:30;2.83;;;1.83;;
35326;SDS011;21436;52.348;20.928;2023-07-09T08:38:03;3.55;;;1.50;;
35326;SDS011;21436;52.348;20.928;2023-07-09T08:40:31;2.95;;;1.60;;
35326;SDS011;21436;52.348;20.928;2023-07-09T08:43:04;2.90;;;1.75;;
35326;SDS011;21436;52.348;20.928;2023-07-09T08:45:47;1.92;;;1.30;;
35326;SDS011;21436;52.348;20.928;2023-07-09T08:48:21;3.15;;;1.45;;
35326;SDS011;21436;52.348;20.928;2023-07-09T08:50:55;3.88;;;1.98;;
35326;SDS011;21436;52.348;20.928;2023-07-09T08:53:40;3.75;;;1.40;;
35326;SDS011;21436;52.348;20.928;2023-07-09T08:56:11;2.75;;;1.75;;
35326;SDS011;21436;52.348;20.928;2023-07-09T08:58:41;4.78;;;1.60;;
35326;SDS011;21436;52.348;20.928;2023-07-09T09:01:20;1.83;;;1.40;;
35326;SDS011;21436;52.348;20.928;2023-07-09T09:03:52;2.15;;;1.80;;
35326;SDS011;21436;52.348;20.928;2023-07-09T09:06:22;1.70;;;1.20;;
35326;SDS011;21436;52.348;20.928;2023-07-09T09:11:49;3.28;;;1.60;;
35326;SDS011;21436;52.348;20.928;2023-07-09T09:14:31;2.70;;;1.70;;
35326;SDS011;21436;52.348;20.928;2023-07-09T09:17:01;2.03;;;1.40;;
35326;SDS011;21436;52.348;20.928;2023-07-09T09:19:34;2.67;;;1.75;;
35326;SDS011;21436;52.348;20.928;2023-07-09T09:22:08;3.20;;;1.85;;
35326;SDS011;21436;52.348;20.928;2023-07-09T09:24:51;3.10;;;1.50;;
35326;SDS011;21436;52.348;20.928;2023-07-09T09:27:22;9.15;;;3.10;;
35326;SDS011;21436;52.348;20.928;2023-07-09T09:29:50;2.65;;;1.58;;
35326;SDS011;21436;52.348;20.928;2023-07-09T09:35:12;3.30;;;1.73;;
35326;SDS011;21436;52.348;20.928;2023-07-09T09:37:43;2.97;;;1.33;;
35326;SDS011;21436;52.348;20.928;2023-07-09T09:40:21;3.72;;;1.73;;
35326;SDS011;21436;52.348;20.928;2023-07-09T09:42:51;3.42;;;1.40;;
35326;SDS011;21436;52.348;20.928;2023-07-09T09:45:25;2.28;;;1.60;;
35326;SDS011;21436;52.348;20.928;2023-07-09T09:47:58;1.33;;;1.10;;
35326;SDS011;21436;52.348;20.928;2023-07-09T09:50:30;2.53;;;1.60;;
35326;SDS011;21436;52.348;20.928;2023-07-09T09:52:59;1.65;;;1.17;;
35326;SDS011;21436;52.348;20.928;2023-07-09T09:55:30;3.08;;;1.35;;
35326;SDS011;21436;52.348;20.928;2023-07-09T09:57:59;1.52;;;1.08;;
35326;SDS011;21436;52.348;20.928;2023-07-09T10:00:27;1.30;;;0.93;;
35326;SDS011;21436;52.348;20.928;2023-07-09T10:02:56;2.50;;;1.13;;
35326;SDS011;21436;52.348;20.928;2023-07-09T10:05:32;3.03;;;1.48;;
35326;SDS011;21436;52.348;20.928;2023-07-09T10:08:39;1.85;;;0.90;;
35326;SDS011;21436;52.348;20.928;2023-07-09T10:10:52;1.50;;;0.98;;
35326;SDS011;21436;52.348;20.928;2023-07-09T10:13:30;1.27;;;0.90;;
35326;SDS011;21436;52.348;20.928;2023-07-09T10:16:44;4.38;;;1.73;;
35326;SDS011;21436;52.348;20.928;2023-07-09T10:19:02;2.53;;;1.25;;
35326;SDS011;21436;52.348;20.928;2023-07-09T10:35:18;3.47;;;0.82;;
35326;SDS011;21436;52.348;20.928;2023-07-09T10:40:59;1.38;;;1.00;;
35326;SDS011;21436;52.348;20.928;2023-07-09T10:46:13;2.47;;;1.17;;
35326;SDS011;21436;52.348;20.928;2023-07-09T10:48:44;4.80;;;1.30;;
35326;SDS011;21436;52.348;20.928;2023-07-09T10:51:18;1.55;;;1.02;;
35326;SDS011;21436;52.348;20.928;2023-07-09T10:53:50;2.75;;;1.00;;
35326;SDS011;21436;52.348;20.928;2023-07-09T10:56:28;1.63;;;0.90;;
35326;SDS011;21436;52.348;20.928;2023-07-09T11:01:41;1.42;;;1.10;;
35326;SDS011;21436;52.348;20.928;2023-07-09T11:07:10;3.08;;;0.80;;
35326;SDS011;21436;52.348;20.928;2023-07-09T11:09:41;1.05;;;0.80;;
35326;SDS011;21436;52.348;20.928;2023-07-09T11:12:18;2.08;;;1.20;;
35326;SDS011;21436;52.348;20.928;2023-07-09T11:15:01;1.20;;;1.10;;
35326;SDS011;21436;52.348;20.928;2023-07-09T11:17:36;5.10;;;1.10;;
35326;SDS011;21436;52.348;20.928;2023-07-09T11:20:08;3.60;;;1.00;;
35326;SDS011;21436;52.348;20.928;2023-07-09T11:22:53;2.28;;;1.20;;
35326;SDS011;21436;52.348;20.928;2023-07-09T11:25:30;1.63;;;0.95;;
35326;SDS011;21436;52.348;20.928;2023-07-09T11:28:11;1.27;;;1.08;;
35326;SDS011;21436;52.348;20.928;2023-07-09T11:31:16;3.42;;;1.10;;
35326;SDS011;21436;52.348;20.928;2023-07-09T11:33:33;1.90;;;0.98;;
35326;SDS011;21436;52.348;20.928;2023-07-09T11:36:14;2.33;;;1.10;;
35326;SDS011;21436;52.348;20.928;2023-07-09T11:38:53;1.08;;;0.98;;
35326;SDS011;21436;52.348;20.928;2023-07-09T11:44:14;3.88;;;1.40;;
35326;SDS011;21436;52.348;20.928;2023-07-09T11:46:57;3.47;;;1.15;;
35326;SDS011;21436;52.348;20.928;2023-07-09T11:49:27;2.73;;;1.20;;
35326;SDS011;21436;52.348;20.928;2023-07-09T11:52:04;2.33;;;1.45;;
35326;SDS011;21436;52.348;20.928;2023-07-09T11:54:37;1.20;;;1.10;;
35326;SDS011;21436;52.348;20.928;2023-07-09T11:57:09;3.67;;;1.00;;
35326;SDS011;21436;52.348;20.928;2023-07-09T11:59:40;2.08;;;1.33;;
35326;SDS011;21436;52.348;20.928;2023-07-09T12:02:16;2.15;;;1.40;;
35326;SDS011;21436;52.348;20.928;2023-07-09T12:04:50;2.10;;;1.00;;
35326;SDS011;21436;52.348;20.928;2023-07-09T12:07:20;2.03;;;1.38;;
35326;SDS011;21436;52.348;20.928;2023-07-09T12:09:49;1.75;;;1.20;;
35326;SDS011;21436;52.348;20.928;2023-07-09T12:12:27;2.20;;;1.25;;
35326;SDS011;21436;52.348;20.928;2023-07-09T12:14:55;2.33;;;1.20;;
35326;SDS011;21436;52.348;20.928;2023-07-09T12:17:27;1.50;;;1.30;;
35326;SDS011;21436;52.348;20.928;2023-07-09T12:19:57;2.35;;;1.30;;
35326;SDS011;21436;52.348;20.928;2023-07-09T12:22:25;1.58;;;1.40;;
35326;SDS011;21436;52.348;20.928;2023-07-09T12:24:52;1.30;;;1.15;;
35326;SDS011;21436;52.348;20.928;2023-07-09T12:27:25;1.00;;;0.90;;
35326;SDS011;21436;52.348;20.928;2023-07-09T12:29:55;1.30;;;1.17;;
35326;SDS011;21436;52.348;20.928;2023-07-09T12:32:24;2.25;;;1.60;;
35326;SDS011;21436;52.348;20.928;2023-07-09T12:34:55;1.80;;;1.42;;
35326;SDS011;21436;52.348;20.928;2023-07-09T12:37:24;1.27;;;1.17;;
35326;SDS011;21436;52.348;20.928;2023-07-09T12:39:52;1.00;;;0.90;;
35326;SDS011;21436;52.348;20.928;2023-07-09T12:42:25;2.75;;;1.33;;
35326;SDS011;21436;52.348;20.928;2023-07-09T12:45:00;3.05;;;1.40;;
35326;SDS011;21436;52.348;20.928;2023-07-09T12:47:28;1.67;;;1.20;;
35326;SDS011;21436;52.348;20.928;2023-07-09T12:50:00;1.52;;;1.15;;
35326;SDS011;21436;52.348;20.928;2023-07-09T12:52:29;1.73;;;1.02;;
35326;SDS011;21436;52.348;20.928;2023-07-09T12:54:57;4.75;;;1.48;;
35326;SDS011;21436;52.348;20.928;2023-07-09T12:57:26;3.25;;;1.08;;
35326;SDS011;21436;52.348;20.928;2023-07-09T12:59:55;2.83;;;1.30;;
35326;SDS011;21436;52.348;20.928;2023-07-09T13:02:26;1.30;;;1.17;;
35326;SDS011;21436;52.348;20.928;2023-07-09T13:05:03;1.90;;;1.70;;
35326;SDS011;21436;52.348;20.928;2023-07-09T13:07:35;1.65;;;0.90;;
35326;SDS011;21436;52.348;20.928;2023-07-09T13:10:19;1.23;;;1.13;;
35326;SDS011;21436;52.348;20.928;2023-07-09T13:12:55;1.25;;;1.15;;
35326;SDS011;21436;52.348;20.928;2023-07-09T13:15:25;2.70;;;1.40;;
35326;SDS011;21436;52.348;20.928;2023-07-09T13:18:08;129.73;;;11.15;;
35326;SDS011;21436;52.348;20.928;2023-07-09T13:20:39;2.67;;;1.60;;
35326;SDS011;21436;52.348;20.928;2023-07-09T13:23:10;1.33;;;1.23;;
35326;SDS011;21436;52.348;20.928;2023-07-09T13:25:40;2.75;;;1.33;;
35326;SDS011;21436;52.348;20.928;2023-07-09T13:30:47;3.50;;;1.90;;
35326;SDS011;21436;52.348;20.928;2023-07-09T13:33:16;2.72;;;1.17;;
35326;SDS011;21436;52.348;20.928;2023-07-09T13:35:45;6.13;;;1.20;;
35326;SDS011;21436;52.348;20.928;2023-07-09T13:38:15;2.15;;;1.35;;
35326;SDS011;21436;52.348;20.928;2023-07-09T13:40:44;1.30;;;1.17;;
35326;SDS011;21436;52.348;20.928;2023-07-09T13:43:14;2.88;;;1.48;;
35326;SDS011;21436;52.348;20.928;2023-07-09T13:46:08;1.83;;;1.15;;
35326;SDS011;21436;52.348;20.928;2023-07-09T13:48:37;2.22;;;1.20;;
35326;SDS011;21436;52.348;20.928;2023-07-09T13:51:19;4.00;;;1.50;;
35326;SDS011;21436;52.348;20.928;2023-07-09T13:53:49;1.80;;;1.30;;
35326;SDS011;21436;52.348;20.928;2023-07-09T13:56:17;1.60;;;1.20;;
35326;SDS011;21436;52.348;20.928;2023-07-09T13:58:45;1.60;;;1.27;;
35326;SDS011;21436;52.348;20.928;2023-07-09T14:01:17;2.63;;;1.60;;
35326;SDS011;21436;52.348;20.928;2023-07-09T14:03:48;1.98;;;1.30;;
35326;SDS011;21436;52.348;20.928;2023-07-09T14:06:16;1.90;;;1.63;;
35326;SDS011;21436;52.348;20.928;2023-07-09T14:08:45;2.70;;;1.65;;
35326;SDS011;21436;52.348;20.928;2023-07-09T14:11:13;2.08;;;1.50;;
35326;SDS011;21436;52.348;20.928;2023-07-09T14:13:42;1.45;;;1.30;;
35326;SDS011;21436;52.348;20.928;2023-07-09T14:16:10;1.70;;;1.48;;
35326;SDS011;21436;52.348;20.928;2023-07-09T14:18:39;1.67;;;1.58;;
35326;SDS011;21436;52.348;20.928;2023-07-09T14:21:13;1.83;;;1.52;;
35326;SDS011;21436;52.348;20.928;2023-07-09T14:23:51;1.65;;;1.55;;
35326;SDS011;21436;52.348;20.928;2023-07-09T14:26:19;4.00;;;1.58;;
35326;SDS011;21436;52.348;20.928;2023-07-09T14:28:46;2.42;;;1.60;;
35326;SDS011;21436;52.348;20.928;2023-07-09T14:31:27;1.98;;;1.80;;
35326;SDS011;21436;52.348;20.928;2023-07-09T14:33:57;1.65;;;1.45;;
35326;SDS011;21436;52.348;20.928;2023-07-09T14:36:42;3.38;;;1.60;;
35326;SDS011;21436;52.348;20.928;2023-07-09T14:39:09;2.78;;;1.80;;
35326;SDS011;21436;52.348;20.928;2023-07-09T14:41:37;1.90;;;1.60;;
35326;SDS011;21436;52.348;20.928;2023-07-09T14:44:13;2.67;;;1.63;;
35326;SDS011;21436;52.348;20.928;2023-07-09T14:46:51;2.53;;;1.55;;
35326;SDS011;21436;52.348;20.928;2023-07-09T14:49:22;1.73;;;1.45;;
35326;SDS011;21436;52.348;20.928;2023-07-09T14:51:50;2.10;;;1.70;;
35326;SDS011;21436;52.348;20.928;2023-07-09T14:54:30;2.63;;;1.80;;
35326;SDS011;21436;52.348;20.928;2023-07-09T14:56:58;4.97;;;1.98;;
35326;SDS011;21436;52.348;20.928;2023-07-09T14:59:26;2.80;;;1.52;;
35326;SDS011;21436;52.348;20.928;2023-07-09T15:01:54;3.50;;;1.45;;
35326;SDS011;21436;52.348;20.928;2023-07-09T15:04:25;3.15;;;2.00;;
35326;SDS011;21436;52.348;20.928;2023-07-09T15:06:58;2.08;;;1.50;;
35326;SDS011;21436;52.348;20.928;2023-07-09T15:09:27;3.08;;;1.70;;
35326;SDS011;21436;52.348;20.928;2023-07-09T15:11:56;3.70;;;1.70;;
35326;SDS011;21436;52.348;20.928;2023-07-09T15:14:26;2.30;;;1.42;;
35326;SDS011;21436;52.348;20.928;2023-07-09T15:16:54;4.93;;;1.95;;
35326;SDS011;21436;52.348;20.928;2023-07-09T15:19:29;2.65;;;1.42;;
35326;SDS011;21436;52.348;20.928;2023-07-09T15:21:57;1.88;;;1.77;;
35326;SDS011;21436;52.348;20.928;2023-07-09T15:24:29;1.90;;;1.70;;
35326;SDS011;21436;52.348;20.928;2023-07-09T15:26:59;1.55;;;1.45;;
35326;SDS011;21436;52.348;20.928;2023-07-09T15:29:28;2.08;;;1.60;;
35326;SDS011;21436;52.348;20.928;2023-07-09T15:31:56;3.75;;;2.13;;
35326;SDS011;21436;52.348;20.928;2023-07-09T15:34:25;2.95;;;1.42;;